Time;durP1;ratioP1;P1;durP2;ratioP2;P2;SDS_P1;SDS_P2;PMS_P1;PMS_P2;Temp;Humidity;BMP_temperature;BMP_pressure;BME280_temperature;BME280_humidity;BME280_pressure;Samples;Min_cycle;Max_cycle;Signal;HPM_P1;HPM_P2
2022/12/22 03:26:47;;;;;;;16.17;14.47;;;10.50;91.00;;;13.15;66.02;100234.44;5019205;28;20596;-52
2022/12/22 03:29:14;;;;;;;19.57;16.50;;;10.50;91.00;;;13.17;65.92;100227.91;5015852;28;20219;-52
2022/12/22 03:31:41;;;;;;;16.57;14.87;;;10.50;90.90;;;13.21;65.68;100223.06;5016047;28;20238;-52
2022/12/22 03:34:09;;;;;;;16.20;14.50;;;10.50;90.90;;;13.22;65.54;100214.91;5016253;28;20195;-53
2022/12/22 03:36:36;;;;;;;18.27;16.33;;;10.50;90.90;;;13.21;65.91;100223.88;5015969;28;20206;-53
2022/12/22 03:39:03;;;;;;;16.43;14.60;;;10.60;90.90;;;13.23;65.76;100213.91;5015857;28;20215;-53
2022/12/22 03:47:01;;;;;;;18.17;16.37;;;10.60;90.80;;;13.24;65.61;100220.81;5035588;28;20183;-53
2022/12/22 03:49:29;;;;;;;17.37;15.53;;;10.60;90.80;;;13.25;65.52;100209.22;5035401;28;20272;-53
2022/12/22 03:51:56;;;;;;;18.67;16.80;;;10.60;90.80;;;13.27;65.60;100207.19;5036096;28;20190;-55
2022/12/22 03:54:25;;;;;;;17.37;15.43;;;10.60;90.80;;;13.30;65.83;100206.78;5035611;28;20191;-54
2022/12/22 03:56:53;;;;;;;17.80;15.50;;;10.60;90.80;;;13.32;65.28;100196.00;5035212;28;20194;-54
2022/12/22 03:59:20;;;;;;;17.70;15.90;;;10.60;90.80;;;13.29;65.48;100194.56;5035188;28;20285;-56
2022/12/22 04:01:50;;;;;;;17.80;15.87;;;10.60;90.70;;;13.31;65.52;100184.59;5034555;28;20202;-53
2022/12/22 04:04:20;;;;;;;15.73;14.03;;;10.70;90.80;;;13.31;65.52;100179.31;5035492;28;20203;-53
2022/12/22 04:06:48;;;;;;;17.53;14.80;;;10.60;90.70;;;13.34;65.23;100180.75;5035549;28;20191;-53
2022/12/22 04:09:16;;;;;;;17.60;14.97;;;10.60;90.70;;;13.35;65.17;100177.91;5030008;28;20219;-54
2022/12/22 04:14:29;;;;;;;18.07;15.17;;;10.70;90.70;;;13.37;65.27;100169.75;5035194;28;20229;-53
2022/12/22 04:17:01;;;;;;;17.00;14.77;;;10.70;90.70;;;13.40;65.17;100170.19;5035221;28;20179;-55
2022/12/22 04:19:28;;;;;;;19.00;14.83;;;10.70;90.80;;;13.39;65.12;100173.81;5024779;28;20318;-55
2022/12/22 04:21:56;;;;;;;17.10;15.40;;;10.70;90.70;;;13.40;65.01;100175.47;5015294;28;20249;-56
2022/12/22 04:24:23;;;;;;;19.00;15.80;;;10.70;90.70;;;13.41;65.10;100178.91;5017800;28;20601;-56
2022/12/22 04:26:52;;;;;;;17.60;15.80;;;10.70;90.70;;;13.41;65.28;100171.78;5014842;28;20199;-55
2022/12/22 04:29:18;;;;;;;16.87;15.20;;;10.70;90.70;;;13.42;65.03;100176.06;5014895;28;20269;-55
2022/12/22 04:31:45;;;;;;;17.40;15.53;;;10.70;90.70;;;13.40;64.94;100172.81;5014686;28;20224;-57
2022/12/22 04:34:12;;;;;;;17.37;15.43;;;10.70;90.70;;;13.42;65.05;100169.97;5015201;28;20219;-53
2022/12/22 04:36:39;;;;;;;15.90;14.23;;;10.70;90.70;;;13.45;64.97;100167.69;5020273;28;20229;-54
2022/12/22 04:39:07;;;;;;;15.23;13.73;;;10.70;90.70;;;13.49;65.02;100166.28;5034511;28;20215;-55
2022/12/22 04:41:34;;;;;;;15.43;13.83;;;10.70;90.70;;;13.52;65.03;100165.88;5034768;28;20194;-54
2022/12/22 04:44:01;;;;;;;17.47;15.70;;;10.70;90.70;;;13.54;64.74;100166.47;5034548;28;20205;-55
2022/12/22 04:46:28;;;;;;;17.83;15.97;;;10.70;90.70;;;13.55;64.61;100157.50;5035681;28;20191;-53
2022/12/22 04:48:55;;;;;;;17.37;15.30;;;10.80;90.70;;;13.55;64.82;100164.63;5033955;28;20302;-53
2022/12/22 04:51:27;;;;;;;16.60;14.87;;;10.80;90.70;;;13.56;64.63;100155.69;5020210;28;20207;-52
2022/12/22 04:53:54;;;;;;;17.37;15.70;;;10.80;90.60;;;13.56;64.82;100153.88;5013227;28;20642;-55
2022/12/22 04:56:22;;;;;;;17.33;15.33;;;10.80;90.70;;;13.57;64.68;100152.81;5014280;28;20195;-54
2022/12/22 04:58:49;;;;;;;18.40;14.90;;;10.80;90.70;;;13.55;64.64;100146.94;5013524;28;20211;-55
2022/12/22 05:01:18;;;;;;;15.30;13.77;;;10.80;90.60;;;13.54;64.68;100140.03;5033158;28;20194;-55
2022/12/22 05:03:46;;;;;;;17.40;15.60;;;10.80;90.60;;;13.53;64.79;100138.41;5033374;28;20252;-54
2022/12/22 05:06:14;;;;;;;18.43;16.40;;;10.80;90.60;;;13.49;65.00;100137.22;5034262;28;20225;-55
2022/12/22 05:08:41;;;;;;;19.53;17.43;;;10.80;90.60;;;13.46;65.12;100137.63;5033088;28;20232;-52
2022/12/22 05:11:08;;;;;;;17.83;16.07;;;10.80;90.60;;;13.42;65.20;100140.88;5033955;28;20186;-55
2022/12/22 05:13:37;;;;;;;18.50;16.50;;;10.80;90.60;;;13.41;65.18;100140.06;5033670;28;20194;-55
2022/12/22 05:16:06;;;;;;;17.27;15.43;;;10.80;90.70;;;13.44;65.16;100129.09;5033343;28;20249;-52
2022/12/22 05:18:35;;;;;;;16.73;15.10;;;10.80;90.70;;;13.48;65.16;100132.94;5020959;28;20183;-54
2022/12/22 05:21:04;;;;;;;16.60;14.90;;;10.80;90.70;;;13.53;65.22;100135.75;5013913;28;20529;-52
2022/12/22 05:23:31;;;;;;;16.90;15.10;;;10.80;90.80;;;13.57;65.01;100130.88;5014272;28;20659;-54
2022/12/22 05:25:58;;;;;;;16.17;14.43;;;10.80;90.90;;;13.60;64.95;100127.00;5014157;28;20644;-54
2022/12/22 05:28:25;;;;;;;15.70;14.10;;;10.80;90.90;;;13.64;64.79;100126.38;5012816;28;20198;-55
2022/12/22 05:30:54;;;;;;;16.47;14.77;;;10.80;90.80;;;13.69;64.62;100125.75;5014146;28;20253;-53
2022/12/22 05:33:21;;;;;;;18.00;16.10;;;10.80;90.90;;;13.73;64.64;100127.75;5033680;28;20191;-54
2022/12/22 05:35:48;;;;;;;19.13;17.13;;;10.80;90.80;;;13.73;64.60;100116.38;5033694;28;20195;-53
2022/12/22 05:38:15;;;;;;;17.37;15.47;;;10.80;90.80;;;13.71;64.57;100123.69;5032871;28;20667;-55
2022/12/22 05:40:42;;;;;;;17.93;15.93;;;10.80;90.70;;;13.69;64.69;100117.81;5033556;28;20248;-53
2022/12/22 05:43:09;;;;;;;17.23;15.53;;;10.90;90.70;;;13.67;64.64;100112.72;5033104;28;20241;-55
2022/12/22 05:45:36;;;;;;;17.50;14.40;;;10.90;90.70;;;13.69;64.86;100104.59;5023942;28;20199;-52
2022/12/22 05:48:05;;;;;;;16.63;14.87;;;10.90;90.70;;;13.70;64.48;100106.19;5017917;28;20202;-56
2022/12/22 05:50:32;;;;;;;18.03;16.13;;;10.90;90.70;;;13.73;64.56;100103.97;5033018;28;20211;-54
2022/12/22 05:52:59;;;;;;;17.67;15.87;;;10.90;90.70;;;13.73;64.52;100098.66;5033615;28;20201;-54
2022/12/22 05:55:26;;;;;;;16.67;14.97;;;10.90;90.70;;;13.73;64.41;100095.22;5033274;28;20592;-54
2022/12/22 05:57:54;;;;;;;15.67;14.07;;;10.90;90.70;;;13.74;64.49;100096.84;5033415;28;20195;-54
2022/12/22 06:00:22;;;;;;;16.37;14.77;;;10.90;90.70;;;13.75;64.34;100093.16;5031610;28;20203;-55
2022/12/22 06:02:49;;;;;;;16.30;14.60;;;10.90;90.70;;;13.76;64.42;100089.50;5033918;28;20217;-56
2022/12/22 06:05:18;;;;;;;18.30;15.93;;;10.90;90.70;;;13.80;64.50;100093.34;5033379;28;20187;-56
2022/12/22 06:07:45;;;;;;;17.67;15.87;;;10.90;90.70;;;13.79;64.14;100089.06;5033215;28;20198;-55
2022/12/22 06:10:13;;;;;;;17.90;16.10;;;10.90;90.70;;;13.77;64.06;100091.09;5032669;28;20217;-54
2022/12/22 06:12:41;;;;;;;17.63;15.83;;;10.90;90.60;;;13.75;64.19;100091.34;5032587;28;20195;-53
2022/12/22 06:15:12;;;;;;;18.87;16.97;;;10.90;90.50;;;13.72;64.09;100088.28;5033089;28;20194;-54
2022/12/22 06:17:40;;;;;;;18.80;16.90;;;10.90;90.50;;;13.72;64.21;100088.28;5033407;28;20194;-53
2022/12/22 06:20:11;;;;;;;18.10;15.77;;;10.90;90.50;;;13.70;64.20;100095.63;5032806;28;20206;-53
2022/12/22 06:22:40;;;;;;;18.93;17.10;;;10.90;90.60;;;13.65;64.46;100082.22;5033269;28;20198;-55
2022/12/22 06:25:08;;;;;;;19.80;17.73;;;10.90;90.50;;;13.61;64.49;100081.84;5032820;28;20195;-54
2022/12/22 06:27:44;;;;;;;18.73;16.73;;;10.90;90.50;;;13.59;64.51;100083.88;5030262;28;20510;-52
2022/12/22 06:30:12;;;;;;;17.93;16.03;;;10.90;90.50;;;13.61;64.58;100089.78;5014286;28;20219;-54
2022/12/22 06:32:39;;;;;;;20.83;16.77;;;10.90;90.50;;;13.58;64.60;100096.28;5013043;28;20258;-55
2022/12/22 06:35:07;;;;;;;18.23;16.43;;;10.80;90.80;;;13.58;64.53;100088.34;5011999;28;20194;-54
2022/12/22 06:37:34;;;;;;;19.53;17.63;;;10.90;90.60;;;13.56;64.70;100095.69;5012957;28;20211;-54
2022/12/22 06:40:05;;;;;;;19.00;17.10;;;10.90;90.50;;;13.55;64.67;100094.06;5014571;28;20219;-56
2022/12/22 06:45:18;;;;;;;18.13;16.23;;;10.80;90.50;;;13.55;64.81;100104.63;5017433;28;20210;-57
2022/12/22 06:47:45;;;;;;;18.67;15.37;;;10.90;90.50;;;13.58;64.74;100093.66;5016878;28;20191;-54
2022/12/22 06:50:11;;;;;;;19.37;17.47;;;10.80;90.50;;;13.62;64.74;100098.53;5031929;28;20222;-54
2022/12/22 06:52:38;;;;;;;18.70;16.63;;;10.80;90.50;;;13.63;64.55;100094.84;5017683;28;20191;-55
2022/12/22 06:55:07;;;;;;;17.83;16.03;;;10.80;90.50;;;13.63;64.65;100102.78;5034425;28;20561;-52
2022/12/22 06:57:34;;;;;;;17.47;15.67;;;10.80;90.50;;;13.64;64.46;100113.16;5037775;28;20198;-54
2022/12/22 07:00:03;;;;;;;18.57;16.60;;;10.80;90.50;;;13.64;64.50;100112.34;5037443;28;20211;-54
2022/12/22 07:02:30;;;;;;;18.17;16.27;;;10.90;90.50;;;13.64;64.60;100107.06;5042850;28;20248;-57
2022/12/22 07:04:58;;;;;;;17.17;15.40;;;10.90;90.60;;;13.67;64.58;100111.94;5043914;28;20229;-55
2022/12/22 07:07:25;;;;;;;18.70;16.70;;;10.90;90.60;;;13.69;64.44;100118.63;5039605;28;20274;-55
2022/12/22 07:09:53;;;;;;;18.77;16.87;;;10.90;90.60;;;13.72;64.47;100125.31;5035599;28;20241;-54
2022/12/22 07:12:21;;;;;;;20.17;17.97;;;10.90;90.60;;;13.69;64.48;100120.47;5036499;28;20595;-53
2022/12/22 07:14:48;;;;;;;19.83;17.83;;;10.90;90.50;;;13.65;64.74;100120.06;5036433;28;20592;-53
2022/12/22 07:17:15;;;;;;;17.90;16.10;;;10.90;90.50;;;13.67;64.63;100111.94;5036543;28;20202;-55
2022/12/22 07:19:43;;;;;;;19.10;17.20;;;10.90;90.50;;;13.68;64.60;100124.13;5035666;28;20214;-55
2022/12/22 07:22:10;;;;;;;19.97;17.87;;;10.90;90.50;;;13.68;64.53;100121.47;5036025;28;20202;-53
2022/12/22 07:24:37;;;;;;;19.93;17.43;;;11.00;90.50;;;13.66;64.48;100116.41;5036032;28;20573;-52
2022/12/22 07:27:04;;;;;;;20.30;18.10;;;11.00;90.50;;;13.64;64.57;100112.34;5035293;28;20208;-60
2022/12/22 07:29:34;;;;;;;20.20;18.17;;;11.00;90.40;;;13.66;64.52;100120.88;5035157;28;20322;-54
2022/12/22 07:32:02;;;;;;;20.43;18.17;;;11.00;90.50;;;13.64;64.64;100117.63;5035612;28;20543;-56
2022/12/22 07:34:29;;;;;;;19.03;17.13;;;11.00;90.50;;;13.63;64.72;100130.03;5036211;28;20205;-52
2022/12/22 07:36:56;;;;;;;19.60;17.50;;;11.00;90.50;;;13.62;64.81;100130.25;5037317;28;20209;-53
2022/12/22 07:39:23;;;;;;;20.57;18.47;;;11.00;90.50;;;13.60;64.88;100127.00;5035311;28;20234;-54
2022/12/22 07:44:37;;;;;;;20.50;18.50;;;11.00;90.50;;;13.50;65.13;100122.94;5037894;28;20578;-56
2022/12/22 07:47:04;;;;;;;19.43;17.43;;;10.90;90.50;;;13.45;65.22;100128.03;5037272;28;20199;-53
2022/12/22 07:52:17;;;;;;;22.53;18.73;;;10.90;90.50;;;13.37;65.73;100130.94;5035835;28;20202;-53
2022/12/22 07:54:44;;;;;;;20.83;18.70;;;10.80;90.50;;;13.39;65.61;100125.44;5035693;28;20252;-53
2022/12/22 07:57:11;;;;;;;21.17;18.97;;;10.80;90.60;;;13.38;65.54;100129.09;5035437;28;20199;-55
2022/12/22 07:59:39;;;;;;;21.97;18.67;;;10.80;90.70;;;13.40;65.69;100130.53;5036178;28;20633;-54
2022/12/22 08:02:11;;;;;;;23.63;20.03;;;10.80;90.70;;;13.41;65.65;100124.19;5030307;28;20192;-54
2022/12/22 08:04:38;;;;;;;24.03;20.50;;;10.80;90.80;;;13.40;65.76;100138.47;5026973;28;20191;-55
2022/12/22 08:07:05;;;;;;;19.73;17.37;;;10.80;90.80;;;13.43;65.57;100140.66;5035655;28;20660;-54
2022/12/22 08:09:32;;;;;;;17.07;15.27;;;10.90;90.80;;;13.52;65.59;100144.72;5035602;28;20237;-54
2022/12/22 08:11:59;;;;;;;19.57;17.47;;;10.80;90.90;;;13.64;65.35;100146.72;5045474;28;20690;-55
2022/12/22 08:14:26;;;;;;;18.50;16.60;;;10.80;90.90;;;13.70;64.99;100149.34;5043940;28;20274;-52
2022/12/22 08:16:54;;;;;;;21.13;16.97;;;10.90;90.90;;;13.78;64.80;100156.22;5021189;28;20202;-53
2022/12/22 08:19:21;;;;;;;20.93;17.73;;;10.90;90.90;;;13.84;64.81;100152.72;5015229;28;20211;-54
2022/12/22 08:21:48;;;;;;;20.10;17.20;;;10.90;90.90;;;13.88;64.55;100153.94;5015460;28;20226;-54
2022/12/22 08:24:19;;;;;;;18.33;16.33;;;10.90;90.90;;;13.93;64.53;100154.94;5015904;28;20217;-56
2022/12/22 08:26:52;;;;;;;21.20;18.33;;;11.00;91.00;;;13.98;64.26;100162.22;5015964;28;20199;-56
2022/12/22 08:29:24;;;;;;;21.03;18.30;;;11.00;91.00;;;14.02;64.46;100147.56;5018423;28;20261;-57
2022/12/22 08:31:51;;;;;;;21.37;17.73;;;11.00;91.00;;;14.05;64.36;100147.94;5035923;28;20175;-52
2022/12/22 08:34:20;;;;;;;20.17;18.03;;;11.10;91.00;;;14.11;64.09;100156.88;5035406;28;20205;-55
2022/12/22 08:36:52;;;;;;;20.60;17.17;;;11.10;90.90;;;14.13;64.23;100150.38;5035064;28;20736;-54
2022/12/22 08:39:22;;;;;;;22.77;19.90;;;11.10;91.00;;;14.18;64.12;100158.47;5034489;28;20573;-56
2022/12/22 08:41:49;;;;;;;24.53;19.87;;;11.10;91.00;;;14.22;63.94;100158.84;5034448;28;20202;-55
2022/12/22 08:44:19;;;;;;;21.27;17.97;;;11.20;90.90;;;14.23;63.94;100161.31;5020598;28;20247;-53
2022/12/22 08:46:47;;;;;;;18.40;16.33;;;11.20;90.90;;;14.27;63.84;100169.63;5014868;28;20199;-55
2022/12/22 08:49:14;;;;;;;20.57;17.40;;;11.20;90.90;;;14.33;64.00;100160.88;5028387;28;20560;-54
2022/12/22 08:51:42;;;;;;;21.97;18.67;;;11.20;90.90;;;14.34;63.70;100167.78;5034543;28;20667;-56
2022/12/22 08:54:09;;;;;;;21.30;17.97;;;11.30;90.90;;;14.36;63.70;100160.44;5033996;28;20238;-54
2022/12/22 08:56:37;;;;;;;20.70;17.97;;;11.30;90.90;;;14.39;63.64;100165.31;5033889;28;20199;-57
2022/12/22 08:59:06;;;;;;;19.43;17.13;;;11.30;90.80;;;14.42;63.79;100159.59;5034289;28;20207;-53
2022/12/22 09:01:37;;;;;;;22.50;19.13;;;11.40;90.90;;;14.45;63.67;100159.16;5032833;28;20221;-53
2022/12/22 09:04:05;;;;;;;23.57;19.33;;;11.40;90.90;;;14.48;63.89;100150.78;5034140;28;20197;-54
2022/12/22 09:06:33;;;;;;;26.50;19.87;;;11.40;90.80;;;14.50;63.49;100150.59;5021658;28;20667;-53
2022/12/22 09:09:11;;;;;;;20.93;17.67;;;11.40;90.80;;;14.49;63.51;100144.47;5032700;28;20222;-52
2022/12/22 09:11:39;;;;;;;21.10;16.33;;;11.50;90.80;;;14.54;63.59;100147.28;5034137;28;20222;-53
2022/12/22 09:14:08;;;;;;;25.33;20.67;;;11.50;90.80;;;14.59;63.56;100142.16;5034390;28;20286;-55
2022/12/22 09:16:35;;;;;;;21.87;18.40;;;11.50;90.80;;;14.64;63.76;100147.59;5034585;28;20659;-54
2022/12/22 09:19:05;;;;;;;25.43;19.73;;;11.60;90.90;;;14.68;63.68;100151.47;5031271;28;20254;-54
2022/12/22 09:21:33;;;;;;;22.47;19.70;;;11.60;91.10;;;14.69;63.56;100158.38;5014835;28;20187;-55
2022/12/22 09:24:02;;;;;;;22.37;18.30;;;11.60;90.70;;;14.72;63.77;100165.88;4997305;28;20668;-54
2022/12/22 09:26:31;;;;;;;21.77;18.30;;;11.70;90.80;;;14.77;63.29;100163.41;5015350;28;20187;-55
2022/12/22 09:28:58;;;;;;;29.33;22.47;;;11.70;90.80;;;14.77;63.22;100163.41;5032657;28;20215;-53
2022/12/22 09:31:26;;;;;;;28.80;22.43;;;11.80;90.60;;;14.73;62.71;100162.22;5037766;28;20244;-54
2022/12/22 09:33:53;;;;;;;27.00;20.93;;;11.80;90.20;;;14.67;63.01;100163.06;5041290;28;20191;-54
2022/12/22 09:36:24;;;;;;;23.10;20.00;;;11.80;90.20;;;14.66;63.19;100166.75;5043400;28;20281;-54
2022/12/22 09:38:51;;;;;;;22.97;18.83;;;11.80;90.20;;;14.70;63.43;100167.94;5038272;28;20233;-53
2022/12/22 09:41:27;;;;;;;22.70;18.40;;;11.80;90.30;;;14.75;63.38;100170.78;5034334;28;20183;-55
2022/12/22 09:44:02;;;;;;;26.87;21.97;;;11.80;90.30;;;14.81;63.18;100177.03;5033557;28;20190;-53
2022/12/22 09:46:34;;;;;;;25.83;20.07;;;11.80;90.40;;;14.84;63.00;100169.47;5033737;28;20551;-53
2022/12/22 09:49:03;;;;;;;21.77;18.20;;;11.90;90.30;;;14.87;62.94;100173.53;5031286;28;20264;-52
2022/12/22 09:51:37;;;;;;;19.40;16.17;;;11.90;90.30;;;14.91;63.00;100172.88;5014599;28;20620;-54
2022/12/22 09:54:05;;;;;;;22.33;18.13;;;11.90;90.30;;;14.97;62.76;100178.34;5014030;28;20187;-55
2022/12/22 09:56:32;;;;;;;23.13;18.93;;;11.90;90.30;;;15.02;62.99;100181.16;5020405;28;20203;-53
2022/12/22 09:59:01;;;;;;;18.90;15.67;;;11.90;90.30;;;15.05;62.71;100186.03;5035754;28;20230;-55
2022/12/22 10:01:46;;;;;;;26.90;20.13;;;12.00;90.40;;;15.06;62.70;100187.63;5034136;28;20187;-57
2022/12/22 10:04:26;;;;;;;22.63;18.90;;;12.00;90.20;;;15.06;62.44;100187.63;5034486;28;20182;-52
2022/12/22 10:07:04;;;;;;;26.20;19.87;;;12.00;90.20;;;15.02;62.64;100183.81;5034277;28;20369;-56
2022/12/22 10:09:35;;;;;;;23.70;17.93;;;12.10;90.10;;;15.00;62.60;100188.50;5013552;28;20576;-57
2022/12/22 10:12:22;;;;;;;25.83;17.43;;;12.00;90.00;;;14.97;62.77;100194.25;5014532;28;20249;-56
2022/12/22 10:14:53;;;;;;;22.57;17.50;;;12.00;90.10;;;14.99;62.89;100192.19;5018509;28;20202;-53
2022/12/22 10:17:24;;;;;;;23.97;18.90;;;12.00;90.00;;;15.03;62.70;100193.34;5017702;28;20195;-53
2022/12/22 10:20:04;;;;;;;23.90;18.37;;;12.00;90.10;;;15.07;62.56;100194.56;5017500;28;20230;-53
2022/12/22 10:22:44;;;;;;;24.10;18.10;;;12.10;90.10;;;15.07;62.48;100190.06;5029408;28;20636;-56
2022/12/22 10:25:28;;;;;;;22.70;18.53;;;12.10;90.10;;;15.06;62.46;100187.63;5038133;28;20524;-54
2022/12/22 10:28:22;;;;;;;23.67;17.47;;;12.10;89.90;;;15.05;62.18;100201.94;5036572;28;20224;-55
2022/12/22 10:31:14;;;;;;;22.00;17.37;;;12.10;89.70;;;15.02;62.43;100197.06;5037383;28;20707;-53
2022/12/22 10:33:43;;;;;;;25.47;18.67;;;12.10;89.50;;;15.04;62.04;100206.41;5037101;28;20189;-55
2022/12/22 10:36:20;;;;;;;19.33;16.07;;;12.10;89.70;;;15.06;62.24;100198.25;5037290;28;20201;-55
2022/12/22 10:39:02;;;;;;;20.20;16.23;;;12.10;89.60;;;15.07;62.13;100199.88;5035367;28;20203;-55
2022/12/22 10:41:34;;;;;;;22.03;16.77;;;12.10;89.50;;;15.13;61.93;100193.69;5037122;28;20191;-53
2022/12/22 10:44:07;;;;;;;19.27;15.80;;;12.10;89.20;;;15.18;62.24;100201.81;5037685;28;20183;-54
2022/12/22 10:46:40;;;;;;;20.60;17.57;;;12.10;89.30;;;15.20;61.82;100202.41;5038748;28;20179;-54
2022/12/22 10:49:13;;;;;;;20.00;16.67;;;12.10;88.90;;;15.21;61.69;100211.97;5041439;28;20225;-56
2022/12/22 10:51:47;;;;;;;18.50;14.97;;;12.20;88.70;;;15.19;61.58;100206.09;5039904;28;20256;-55
2022/12/22 10:54:28;;;;;;;20.87;15.67;;;12.20;88.60;;;15.20;61.57;100203.22;5028686;28;20195;-56
2022/12/22 10:57:19;;;;;;;19.57;15.50;;;12.20;88.10;;;15.20;61.36;100202.41;5040344;28;20604;-54
2022/12/22 10:59:49;;;;;;;17.60;14.97;;;12.20;87.80;;;15.22;61.38;100210.94;5038432;28;20306;-56
2022/12/22 11:02:28;;;;;;;18.70;15.90;;;12.20;87.60;;;15.22;61.24;100213.59;5034802;28;20289;-55
2022/12/22 11:05:06;;;;;;;18.03;13.83;;;12.20;87.40;;;15.23;60.95;100204.63;5037194;28;20240;-57
2022/12/22 11:07:39;;;;;;;20.57;15.53;;;12.20;87.20;;;15.22;60.74;100213.59;5036539;28;20182;-55
2022/12/22 11:10:24;;;;;;;19.63;14.90;;;12.20;86.90;;;15.15;60.78;100218.97;5035702;28;20638;-58
2022/12/22 11:13:35;;;;;;;18.70;14.33;;;12.20;86.70;;;15.05;60.80;100218.63;5036692;28;20217;-55
2022/12/22 11:16:12;;;;;;;18.10;14.20;;;12.20;86.50;;;15.03;60.46;100225.16;5036708;28;20197;-55
2022/12/22 11:19:03;;;;;;;20.23;15.33;;;12.20;86.40;;;14.96;60.15;100219.09;5035938;28;20214;-55
2022/12/22 11:21:41;;;;;;;18.23;14.80;;;12.10;85.80;;;14.90;60.15;100231.41;5034824;28;20217;-54
2022/12/22 11:24:29;;;;;;;17.00;14.33;;;12.10;85.90;;;14.84;60.10;100237.53;5034655;28;20550;-55
2022/12/22 11:27:20;;;;;;;17.30;12.87;;;12.00;85.80;;;14.79;60.47;100243.47;5034278;28;20195;-53
2022/12/22 11:30:04;;;;;;;19.37;14.43;;;12.00;85.80;;;14.76;60.15;100251.84;5035219;28;20678;-56
2022/12/22 11:33:01;;;;;;;17.97;14.00;;;12.00;85.50;;;14.69;60.39;100243.13;5035637;28;20278;-53
2022/12/22 11:35:49;;;;;;;15.13;12.80;;;11.90;85.40;;;14.65;60.09;100247.25;5035550;28;20182;-54
2022/12/22 11:38:36;;;;;;;16.87;13.13;;;11.90;85.20;;;14.63;60.05;100254.59;5035514;28;20197;-55
2022/12/22 11:41:22;;;;;;;19.83;13.53;;;11.90;85.50;;;14.62;60.36;100250.31;5034673;28;20614;-57
2022/12/22 11:44:20;;;;;;;16.80;12.70;;;11.80;85.40;;;14.60;60.16;100255.00;5016632;28;20523;-53
2022/12/22 11:47:04;;;;;;;16.80;12.40;;;11.90;85.50;;;14.61;60.13;100267.25;5016447;28;20196;-53
2022/12/22 11:50:02;;;;;;;17.00;13.60;;;11.80;85.20;;;14.53;60.02;100266.66;5025664;28;20238;-54
2022/12/22 11:53:14;;;;;;;15.13;11.30;;;11.80;84.90;;;14.48;60.17;100264.66;5018668;28;20199;-52
2022/12/22 11:56:03;;;;;;;18.37;12.83;;;11.80;84.70;;;14.52;60.17;100270.34;5034242;28;20222;-56
2022/12/22 11:59:05;;;;;;;16.97;13.57;;;11.70;85.10;;;14.65;60.39;100276.38;5019803;28;20195;-54
2022/12/22 12:02:32;;;;;;;19.10;13.60;;;11.80;85.40;;;14.96;60.41;100272.09;5038518;28;20189;-58
2022/12/22 12:05:34;;;;;;;17.27;13.00;;;12.00;86.10;;;15.27;59.19;100272.09;5026730;28;20214;-55
2022/12/22 12:08:19;;;;;;;15.47;11.63;;;12.20;85.20;;;15.39;59.01;100273.00;5036256;28;20566;-56
2022/12/22 12:10:52;;;;;;;17.73;12.03;;;12.40;84.30;;;15.64;58.71;100271.19;5054167;28;20237;-57
2022/12/22 12:13:33;;;;;;;16.30;12.70;;;12.50;83.90;;;15.95;58.04;100272.91;5037262;28;20183;-57
2022/12/22 12:16:18;;;;;;;14.80;12.40;;;12.70;84.00;;;16.40;58.04;100273.41;5018754;28;20193;-53
2022/12/22 12:19:13;;;;;;;16.43;11.70;;;13.00;84.30;;;16.65;56.67;100282.09;5017891;28;20214;-57
2022/12/22 12:21:48;;;;;;;16.93;12.07;;;13.20;83.50;;;16.59;55.21;100280.34;5018183;28;20195;-55
2022/12/22 12:24:52;;;;;;;16.50;11.70;;;13.40;81.10;;;16.35;55.21;100283.88;5016806;28;20215;-54
2022/12/22 12:27:40;;;;;;;15.60;10.07;;;13.40;79.30;;;16.06;54.82;100288.09;5033850;28;20240;-57
2022/12/22 12:30:39;;;;;;;13.53;10.23;;;13.30;78.50;;;15.79;54.81;100289.41;5015728;28;20246;-58
2022/12/22 12:33:18;;;;;;;11.87;9.03;;;13.10;78.00;;;15.59;54.99;100294.91;5027536;28;20318;-59
2022/12/22 12:36:12;;;;;;;16.20;9.53;;;12.90;77.60;;;15.35;54.94;100282.44;5035383;28;20270;-56
2022/12/22 12:39:01;;;;;;;13.37;8.73;;;12.80;78.40;;;15.20;55.23;100298.66;5037069;28;20202;-54
2022/12/22 12:41:55;;;;;;;12.93;9.00;;;12.60;78.40;;;15.04;55.00;100288.59;5036283;28;20182;-53
2022/12/22 12:44:26;;;;;;;13.40;8.70;;;12.40;77.40;;;14.96;55.28;100293.31;5028874;28;20554;-57
2022/12/22 12:47:23;;;;;;;15.13;8.20;;;12.30;77.60;;;14.79;55.21;100293.81;5025783;28;20209;-56
2022/12/22 12:50:27;;;;;;;11.80;7.47;;;12.20;78.00;;;14.72;55.45;100298.34;5028019;28;20729;-54
2022/12/22 12:53:13;;;;;;;11.87;7.93;;;12.10;78.00;;;14.63;55.51;100294.34;5034737;28;20797;-55
2022/12/22 12:56:02;;;;;;;10.93;7.40;;;12.00;78.00;;;14.58;55.30;100294.16;5028521;28;20210;-53
2022/12/22 12:58:54;;;;;;;12.00;7.80;;;12.00;78.00;;;14.52;54.95;100297.66;5024365;28;20187;-53
2022/12/22 13:01:58;;;;;;;10.50;7.43;;;11.90;78.00;;;14.45;55.19;100301.34;5023519;28;20543;-51
2022/12/22 13:05:00;;;;;;;10.13;7.03;;;11.80;77.70;;;14.40;55.29;100304.63;5032743;28;20229;-54
2022/12/22 13:08:07;;;;;;;11.17;6.17;;;11.80;77.60;;;14.37;55.04;100305.03;5031908;28;20674;-51
2022/12/22 13:10:38;;;;;;;12.13;7.37;;;11.80;77.50;;;14.39;55.30;100297.69;5032721;28;20246;-54
2022/12/22 13:13:09;;;;;;;11.23;6.37;;;11.70;77.70;;;14.39;55.16;100303.00;5032698;28;20497;-53
2022/12/22 13:15:43;;;;;;;9.47;7.27;;;11.70;77.90;;;14.41;55.05;100300.13;5032188;28;20181;-55
2022/12/22 13:18:41;;;;;;;14.13;7.83;;;11.70;77.90;;;14.33;55.08;100309.13;5025989;28;20186;-52
2022/12/22 13:21:26;;;;;;;9.43;7.50;;;11.70;77.60;;;14.31;54.84;100316.44;5013824;28;20201;-55
2022/12/22 13:24:20;;;;;;;10.00;7.10;;;11.70;77.30;;;14.30;55.07;100314.00;5013984;28;20286;-53
2022/12/22 13:27:04;;;;;;;9.73;7.17;;;11.70;77.10;;;14.30;54.86;100312.19;5013585;28;20233;-54
2022/12/22 13:29:41;;;;;;;13.83;7.03;;;11.60;77.10;;;14.30;54.52;100317.50;5017690;28;20217;-52
2022/12/22 13:32:24;;;;;;;10.70;6.50;;;11.60;76.90;;;14.30;54.66;100328.06;5026218;28;20199;-53
2022/12/22 13:35:05;;;;;;;12.93;6.93;;;11.60;76.70;;;14.28;54.21;100319.50;5014243;28;20195;-54
2022/12/22 13:37:53;;;;;;;11.63;6.00;;;11.60;77.30;;;14.27;54.34;100325.81;5013618;28;20245;-52
2022/12/22 13:40:24;;;;;;;15.87;7.57;;;11.60;76.50;;;14.26;54.06;100326.84;5014114;28;20250;-57
2022/12/22 13:42:55;;;;;;;16.47;6.47;;;11.60;76.20;;;14.29;54.05;100334.34;5031777;28;20194;-52
2022/12/22 13:45:36;;;;;;;12.60;6.13;;;11.60;76.40;;;14.29;54.20;100334.34;5031059;28;20194;-54
2022/12/22 13:48:12;;;;;;;12.90;6.90;;;11.60;76.30;;;14.32;53.68;100323.38;5016513;28;20205;-55
2022/12/22 13:50:46;;;;;;;14.00;7.40;;;11.60;76.40;;;14.34;54.28;100326.63;5030431;28;20624;-53
2022/12/22 13:53:22;;;;;;;12.30;7.00;;;11.60;76.60;;;14.36;54.24;100334.38;5028804;28;20280;-55
2022/12/22 13:56:15;;;;;;;10.57;6.80;;;11.60;76.70;;;14.36;54.40;100350.28;5033776;28;20248;-52
2022/12/22 13:58:44;;;;;;;9.43;6.73;;;11.60;76.60;;;14.32;53.92;100351.69;5023052;28;20215;-52
2022/12/22 14:01:17;;;;;;;13.10;7.23;;;11.60;76.40;;;14.26;53.75;100348.03;5031007;28;20201;-54
2022/12/22 14:03:50;;;;;;;11.20;6.10;;;11.60;75.90;;;14.19;53.24;100347.22;5031973;28;20202;-53
2022/12/22 14:06:31;;;;;;;12.43;6.60;;;11.50;75.10;;;14.08;53.26;100347.84;5033460;28;20617;-51
2022/12/22 14:09:14;;;;;;;10.13;5.40;;;11.50;74.80;;;14.02;53.53;100343.41;5021607;28;20756;-54
2022/12/22 14:11:45;;;;;;;9.50;6.17;;;11.50;75.10;;;14.01;53.74;100347.03;5011862;28;20225;-55